createdAt,value
2022-11-13T00:02:25.156Z,53.70
2022-11-13T00:05:46.074Z,54.20
2022-11-13T00:09:06.439Z,48.08
2022-11-13T00:12:27.194Z,44.97
2022-11-13T00:15:57.134Z,46.20
2022-11-13T00:19:17.668Z,46.40
2022-11-13T00:22:38.275Z,46.88
2022-11-13T00:26:04.124Z,50.60
2022-11-13T00:29:24.908Z,48.00
2022-11-13T00:32:45.715Z,47.25
2022-11-13T00:36:23.635Z,45.50
2022-11-13T00:39:46.529Z,45.55
2022-11-13T00:43:07.192Z,45.85
2022-11-13T00:46:27.846Z,51.83
2022-11-13T00:49:48.560Z,43.67
2022-11-13T00:53:13.858Z,47.20
2022-11-13T00:56:37.283Z,42.78
2022-11-13T00:59:57.964Z,43.08
2022-11-13T01:03:18.862Z,45.33
2022-11-13T01:06:39.482Z,46.13
2022-11-13T01:10:01.137Z,48.63
2022-11-13T01:13:21.570Z,48.25
2022-11-13T01:16:42.233Z,48.70
2022-11-13T01:20:04.392Z,45.87
2022-11-13T01:23:25.164Z,45.50
2022-11-13T01:26:45.860Z,46.83
2022-11-13T01:30:07.426Z,48.70
2022-11-13T01:33:28.966Z,48.33
2022-11-13T01:36:49.587Z,49.40
2022-11-13T01:40:12.568Z,48.38
2022-11-13T01:43:38.232Z,48.22
2022-11-13T01:46:59.080Z,48.63
2022-11-13T01:50:19.935Z,48.17
2022-11-13T01:53:42.190Z,46.83
2022-11-13T01:57:04.116Z,44.83
2022-11-13T02:00:24.782Z,47.53
2022-11-13T02:03:45.614Z,43.88
2022-11-13T02:07:08.871Z,45.53
2022-11-13T02:10:29.962Z,42.97
2022-11-13T02:13:51.430Z,46.05
2022-11-13T02:17:17.565Z,43.92
2022-11-13T02:20:58.322Z,42.30
2022-11-13T02:24:32.314Z,44.20
2022-11-13T02:27:53.425Z,44.47
2022-11-13T02:31:14.505Z,42.10
2022-11-13T02:34:35.282Z,45.05
2022-11-13T02:37:57.583Z,42.47
2022-11-13T02:41:17.991Z,42.85
2022-11-13T02:44:38.685Z,46.17
2022-11-13T02:48:00.591Z,44.65
2022-11-13T02:51:21.138Z,44.55
2022-11-13T02:54:41.851Z,42.15
2022-11-13T02:58:02.490Z,42.70
2022-11-13T03:01:23.383Z,43.23
2022-11-13T03:05:10.939Z,39.67
2022-11-13T03:08:26.155Z,39.63
2022-11-13T03:11:47.201Z,41.72
2022-11-13T03:15:08.697Z,42.55
2022-11-13T03:18:29.641Z,39.47
2022-11-13T03:21:51.029Z,39.13
2022-11-13T03:25:11.506Z,39.53
2022-11-13T03:28:32.287Z,40.50
2022-11-13T03:31:52.898Z,43.80
2022-11-13T03:35:13.536Z,44.90
2022-11-13T03:38:34.799Z,47.22
2022-11-13T03:41:55.670Z,42.67
2022-11-13T03:45:16.591Z,39.80
2022-11-13T03:48:37.356Z,45.58
2022-11-13T03:51:58.017Z,43.07
2022-11-13T03:55:19.331Z,42.05
2022-11-13T03:58:44.688Z,43.72
2022-11-13T04:02:07.807Z,43.95
2022-11-13T04:05:28.506Z,47.55
2022-11-13T04:08:49.077Z,39.07
2022-11-13T04:12:09.741Z,45.15
2022-11-13T04:15:30.422Z,41.88
2022-11-13T04:18:51.475Z,38.88
2022-11-13T04:22:13.151Z,38.95
2022-11-13T04:25:34.046Z,38.27
2022-11-13T04:28:54.776Z,40.15
2022-11-13T04:32:15.622Z,38.70
2022-11-13T04:35:36.814Z,40.35
2022-11-13T04:38:57.345Z,41.80
2022-11-13T04:42:36.550Z,38.77
2022-11-13T04:45:57.265Z,35.53
2022-11-13T04:49:17.886Z,35.50
2022-11-13T04:52:38.583Z,37.42
2022-11-13T04:55:59.275Z,38.03
2022-11-13T04:59:19.914Z,34.00
2022-11-13T05:02:40.632Z,30.17
2022-11-13T05:06:09.497Z,29.20
2022-11-13T05:09:29.938Z,32.85
2022-11-13T05:12:50.630Z,33.25
2022-11-13T05:16:12.730Z,31.40
2022-11-13T05:19:33.854Z,33.15
2022-11-13T05:22:54.656Z,32.95
2022-11-13T05:26:15.464Z,34.53
2022-11-13T05:29:36.227Z,32.40
2022-11-13T05:32:56.793Z,32.83
2022-11-13T05:36:18.570Z,33.63
2022-11-13T05:39:39.291Z,34.10
2022-11-13T05:43:00.106Z,33.00
2022-11-13T05:46:23.986Z,30.27
2022-11-13T05:49:45.226Z,32.73
2022-11-13T05:53:06.386Z,32.80
2022-11-13T05:56:32.687Z,32.35
2022-11-13T05:59:53.155Z,33.15
2022-11-13T06:03:13.810Z,30.08
2022-11-13T06:06:34.800Z,28.77
2022-11-13T06:09:55.277Z,30.95
2022-11-13T06:13:15.943Z,35.05
2022-11-13T06:16:37.947Z,32.88
2022-11-13T06:19:58.855Z,33.45
2022-11-13T06:23:19.586Z,33.37
2022-11-13T06:26:40.760Z,32.13
2022-11-13T06:30:01.263Z,30.27
2022-11-13T06:33:22.064Z,26.35
2022-11-13T06:36:42.734Z,24.15
2022-11-13T06:40:03.509Z,28.43
2022-11-13T06:43:24.276Z,56.38
2022-11-13T06:46:45.124Z,34.00
2022-11-13T06:50:06.824Z,34.58
2022-11-13T06:53:27.613Z,29.83
2022-11-13T06:56:48.216Z,26.97
2022-11-13T07:00:09.570Z,25.42
2022-11-13T07:03:30.553Z,27.15
2022-11-13T07:06:51.282Z,28.63
2022-11-13T07:10:11.950Z,30.38
2022-11-13T07:13:32.828Z,27.97
2022-11-13T07:17:10.353Z,30.15
2022-11-13T07:20:31.841Z,31.02
2022-11-13T07:23:52.664Z,28.10
2022-11-13T07:27:13.286Z,30.35
2022-11-13T07:30:34.093Z,33.53
2022-11-13T07:33:54.949Z,30.75
2022-11-13T07:37:15.660Z,32.40
2022-11-13T07:40:36.322Z,27.38
2022-11-13T07:43:56.930Z,35.55
2022-11-13T07:47:17.471Z,25.30
2022-11-13T07:50:40.051Z,28.50
2022-11-13T07:54:01.104Z,25.65
2022-11-13T07:57:23.029Z,28.05
2022-11-13T08:00:44.492Z,27.38
2022-11-13T08:04:05.555Z,30.57
2022-11-13T08:07:26.352Z,25.17
2022-11-13T08:10:47.166Z,31.80
2022-11-13T08:14:07.895Z,30.52
2022-11-13T08:17:28.580Z,26.92
2022-11-13T08:20:49.288Z,25.00
2022-11-13T08:24:10.326Z,30.13
2022-11-13T08:27:31.081Z,26.55
2022-11-13T08:30:51.793Z,29.67
2022-11-13T08:34:12.409Z,28.88
2022-11-13T08:37:33.604Z,25.63
2022-11-13T08:41:07.365Z,30.52
2022-11-13T08:44:30.600Z,28.35
2022-11-13T08:47:51.418Z,31.70
2022-11-13T08:51:12.116Z,28.73
2022-11-13T08:54:32.807Z,29.70
2022-11-13T08:57:53.580Z,32.88
2022-11-13T09:01:13.897Z,30.33
2022-11-13T09:04:34.704Z,27.35
2022-11-13T09:07:57.589Z,37.05
2022-11-13T09:11:19.269Z,39.17
2022-11-13T09:14:40.977Z,32.20
2022-11-13T09:18:02.864Z,27.55
2022-11-13T09:21:24.209Z,39.15
2022-11-13T09:24:44.506Z,24.67
2022-11-13T09:28:06.007Z,31.70
2022-11-13T09:31:26.467Z,27.67
2022-11-13T09:34:47.504Z,29.67
2022-11-13T09:38:13.697Z,27.52
2022-11-13T09:41:40.963Z,29.88
2022-11-13T09:45:11.698Z,41.00
2022-11-13T09:48:40.680Z,39.38
2022-11-13T09:52:20.183Z,42.65
2022-11-13T09:55:49.043Z,29.27
2022-11-13T09:59:27.630Z,23.95
2022-11-13T10:02:51.474Z,23.97
2022-11-13T10:06:51.038Z,32.80
2022-11-13T10:10:55.551Z,27.58
2022-11-13T10:14:24.004Z,30.45
2022-11-13T10:17:51.367Z,24.90
2022-11-13T10:21:20.512Z,25.67
2022-11-13T10:24:43.004Z,24.63
2022-11-13T10:28:43.063Z,27.77
2022-11-13T10:31:53.751Z,23.35
2022-11-13T10:35:36.621Z,25.10
2022-11-13T10:39:05.181Z,27.27
2022-11-13T10:42:30.311Z,23.98
2022-11-13T10:46:02.825Z,23.45
2022-11-13T10:49:29.419Z,24.02
2022-11-13T10:52:51.304Z,24.60
2022-11-13T10:56:25.550Z,25.27
2022-11-13T10:59:46.300Z,36.53
2022-11-13T11:03:18.724Z,25.60
2022-11-13T11:07:17.799Z,35.58
2022-11-13T11:10:32.253Z,29.35
2022-11-13T11:13:52.900Z,25.97
2022-11-13T11:17:15.700Z,24.02
2022-11-13T11:20:47.360Z,25.42
2022-11-13T11:24:28.543Z,24.38
2022-11-13T11:28:00.941Z,22.95
2022-11-13T11:31:30.724Z,24.13
2022-11-13T11:35:05.427Z,25.00
2022-11-13T11:38:44.912Z,22.77
2022-11-13T11:42:42.000Z,26.27
2022-11-13T11:46:02.438Z,24.95
2022-11-13T11:49:25.818Z,24.03
2022-11-13T11:53:36.272Z,24.85
2022-11-13T11:57:35.902Z,28.48
2022-11-13T12:01:10.745Z,25.02
2022-11-13T12:04:50.215Z,26.15
2022-11-13T12:08:35.156Z,28.50
2022-11-13T12:12:06.903Z,25.45
2022-11-13T12:15:39.138Z,25.60
2022-11-13T12:19:33.090Z,26.38
2022-11-13T12:23:05.132Z,27.20
2022-11-13T12:26:52.346Z,24.23
2022-11-13T12:30:28.233Z,24.25
2022-11-13T12:34:11.556Z,26.23
2022-11-13T12:37:49.160Z,25.73
2022-11-13T12:41:29.726Z,24.58
2022-11-13T12:45:26.073Z,25.60
2022-11-13T12:48:48.419Z,25.85
2022-11-13T12:52:16.191Z,24.58
2022-11-13T12:55:40.168Z,26.63
2022-11-13T12:59:29.074Z,27.67
2022-11-13T13:02:55.997Z,26.20
2022-11-13T13:06:46.117Z,28.50
2022-11-13T13:10:17.142Z,29.35
2022-11-13T13:13:45.628Z,28.65
2022-11-13T13:17:27.219Z,31.50
2022-11-13T13:20:57.757Z,30.80
2022-11-13T13:24:36.586Z,31.30
2022-11-13T13:28:23.358Z,37.78
2022-11-13T13:31:51.126Z,31.08
2022-11-13T13:35:23.402Z,30.88
2022-11-13T13:38:54.145Z,29.93
2022-11-13T13:42:33.385Z,30.35
2022-11-13T13:46:11.191Z,31.33
2022-11-13T13:49:33.122Z,29.95
2022-11-13T13:52:56.292Z,31.95
2022-11-13T13:56:19.252Z,30.83
2022-11-13T13:59:42.416Z,28.75
2022-11-13T14:03:04.242Z,29.67
2022-11-13T14:06:25.767Z,28.95
2022-11-13T14:09:48.831Z,32.33
2022-11-13T14:13:14.655Z,31.40
2022-11-13T14:16:35.769Z,32.42
2022-11-13T14:20:01.366Z,28.55
2022-11-13T14:23:30.194Z,25.10
2022-11-13T14:26:53.354Z,39.88
2022-11-13T14:30:27.171Z,45.27
2022-11-13T14:33:49.821Z,34.40
2022-11-13T14:37:25.935Z,34.35
2022-11-13T14:40:48.497Z,29.15
2022-11-13T14:44:11.983Z,28.48
2022-11-13T14:47:37.564Z,35.40
2022-11-13T14:51:04.209Z,44.13
2022-11-13T14:54:53.056Z,30.08
2022-11-13T14:58:15.102Z,36.45
2022-11-13T15:01:37.143Z,40.58
2022-11-13T15:04:59.179Z,43.60
2022-11-13T15:08:21.318Z,36.55
2022-11-13T15:11:42.642Z,36.70
2022-11-13T15:15:04.348Z,37.20
2022-11-13T15:18:26.099Z,49.97
2022-11-13T15:22:20.466Z,37.57
2022-11-13T15:25:31.716Z,35.88
2022-11-13T15:28:53.664Z,44.10
2022-11-13T15:32:16.722Z,38.97
2022-11-13T15:35:38.661Z,45.15
2022-11-13T15:39:03.469Z,35.63
2022-11-13T15:42:30.102Z,30.10
2022-11-13T15:45:51.729Z,32.40
2022-11-13T15:49:13.771Z,41.65
2022-11-13T15:52:40.821Z,39.38
2022-11-13T15:56:06.146Z,44.07
2022-11-13T15:59:27.261Z,55.25
2022-11-13T16:02:52.364Z,47.75
2022-11-13T16:06:20.237Z,45.17
2022-11-13T16:09:42.176Z,45.92
2022-11-13T16:13:03.805Z,50.33
2022-11-13T16:16:27.581Z,57.35
2022-11-13T16:19:50.534Z,65.38
2022-11-13T16:23:18.002Z,58.88
2022-11-13T16:26:40.139Z,66.78
2022-11-13T16:30:06.674Z,67.17
2022-11-13T16:33:28.850Z,60.65
2022-11-13T16:36:51.988Z,56.47
2022-11-13T16:40:24.893Z,55.75
2022-11-13T16:43:46.298Z,53.33
2022-11-13T16:47:08.551Z,53.37
2022-11-13T16:50:31.712Z,53.08
2022-11-13T16:53:53.435Z,46.33
2022-11-13T16:57:15.577Z,51.50
2022-11-13T17:00:37.618Z,51.88
2022-11-13T17:03:58.937Z,46.13
2022-11-13T17:07:20.419Z,54.70
2022-11-13T17:10:41.609Z,62.70
2022-11-13T17:14:03.460Z,65.72
2022-11-13T17:17:24.271Z,65.38
2022-11-13T17:20:52.916Z,58.67
2022-11-13T17:24:14.350Z,58.22
2022-11-13T17:27:36.720Z,62.75
2022-11-13T17:31:04.569Z,56.83
2022-11-13T17:34:29.141Z,56.75
2022-11-13T17:37:50.101Z,56.23
2022-11-13T17:41:15.732Z,56.17
2022-11-13T17:44:37.011Z,60.35
2022-11-13T17:47:58.880Z,50.88
2022-11-13T17:51:21.102Z,54.80
2022-11-13T17:54:43.482Z,52.47
2022-11-13T17:58:05.404Z,52.20
2022-11-13T18:01:27.476Z,55.50
2022-11-13T18:04:52.661Z,62.50
2022-11-13T18:08:14.584Z,53.53
2022-11-13T18:11:36.712Z,49.83
2022-11-13T18:14:57.945Z,51.72
2022-11-13T18:18:19.110Z,53.95
2022-11-13T18:21:40.944Z,58.72
2022-11-13T18:25:03.708Z,57.13
2022-11-13T18:28:24.851Z,55.77
2022-11-13T18:31:46.260Z,57.97
2022-11-13T18:35:07.949Z,56.58
2022-11-13T18:38:29.911Z,59.72
2022-11-13T18:41:51.128Z,53.92
2022-11-13T18:45:12.592Z,58.10
2022-11-13T18:48:35.843Z,67.40
2022-11-13T18:51:57.200Z,42.90
2022-11-13T18:55:18.385Z,69.85
2022-11-13T18:58:41.748Z,52.80
2022-11-13T19:02:03.225Z,39.53
2022-11-13T19:05:24.824Z,36.90
2022-11-13T19:08:46.650Z,37.03
2022-11-13T19:12:08.357Z,32.17
2022-11-13T19:15:29.567Z,35.88
2022-11-13T19:18:53.278Z,42.97
2022-11-13T19:22:17.809Z,36.85
2022-11-13T19:25:39.087Z,37.70
2022-11-13T19:29:00.045Z,39.53
2022-11-13T19:32:21.465Z,41.83
2022-11-13T19:35:42.849Z,45.00
2022-11-13T19:39:04.825Z,39.75
2022-11-13T19:42:26.670Z,41.05
2022-11-13T19:45:48.088Z,42.50
2022-11-13T19:49:09.907Z,40.58
2022-11-13T19:52:30.710Z,40.00
2022-11-13T19:55:57.337Z,42.53
2022-11-13T19:59:18.232Z,44.67
2022-11-13T20:02:39.528Z,42.55
2022-11-13T20:06:01.774Z,40.65
2022-11-13T20:09:23.017Z,38.23
2022-11-13T20:12:45.603Z,35.92
2022-11-13T20:16:07.844Z,37.42
2022-11-13T20:19:30.604Z,34.85
2022-11-13T20:22:51.786Z,33.47
2022-11-13T20:26:20.998Z,38.00
2022-11-13T20:29:42.336Z,33.13
2022-11-13T20:33:04.439Z,34.40
2022-11-13T20:36:26.337Z,29.92
2022-11-13T20:39:47.585Z,30.33
2022-11-13T20:43:08.901Z,31.37
2022-11-13T20:46:29.985Z,32.95
2022-11-13T20:49:51.015Z,32.20
2022-11-13T20:53:12.433Z,34.88
2022-11-13T20:56:33.210Z,31.83
2022-11-13T20:59:54.104Z,28.97
2022-11-13T21:03:14.916Z,31.58
2022-11-13T21:06:35.799Z,30.30
2022-11-13T21:09:56.761Z,33.15
2022-11-13T21:13:18.748Z,33.40
2022-11-13T21:16:39.375Z,35.43
2022-11-13T21:20:00.523Z,30.75
2022-11-13T21:23:21.691Z,34.97
2022-11-13T21:26:42.669Z,36.38
2022-11-13T21:30:04.205Z,32.92
2022-11-13T21:33:24.717Z,33.03
2022-11-13T21:36:45.309Z,29.05
2022-11-13T21:40:07.515Z,32.33
2022-11-13T21:43:28.427Z,33.28
2022-11-13T21:46:49.380Z,31.13
2022-11-13T21:50:10.472Z,36.63
2022-11-13T21:53:31.455Z,30.98
2022-11-13T21:56:52.182Z,30.75
2022-11-13T22:00:13.502Z,33.63
2022-11-13T22:03:34.152Z,35.88
2022-11-13T22:06:54.627Z,39.13
2022-11-13T22:10:15.602Z,31.67
2022-11-13T22:13:36.206Z,30.42
2022-11-13T22:16:56.925Z,31.48
2022-11-13T22:20:17.680Z,29.20
2022-11-13T22:23:38.486Z,34.60
2022-11-13T22:26:59.445Z,34.13
2022-11-13T22:30:20.467Z,30.90
2022-11-13T22:33:45.033Z,29.90
2022-11-13T22:37:08.285Z,31.17
2022-11-13T22:40:29.062Z,31.97
2022-11-13T22:43:52.286Z,29.95
2022-11-13T22:47:12.882Z,31.10
2022-11-13T22:50:35.762Z,33.40
2022-11-13T22:54:01.299Z,31.77
2022-11-13T22:57:22.006Z,31.33
2022-11-13T23:00:42.706Z,32.00
2022-11-13T23:04:05.739Z,29.75
2022-11-13T23:07:26.571Z,29.20
2022-11-13T23:10:54.025Z,30.73
2022-11-13T23:14:18.004Z,25.97
2022-11-13T23:17:38.411Z,32.10
2022-11-13T23:20:59.536Z,27.95
2022-11-13T23:24:20.080Z,27.27
2022-11-13T23:27:40.706Z,29.55
2022-11-13T23:31:01.430Z,28.63
2022-11-13T23:34:45.540Z,26.05
2022-11-13T23:38:02.869Z,26.35
2022-11-13T23:41:23.640Z,29.27
2022-11-13T23:44:44.481Z,42.83
2022-11-13T23:48:05.440Z,27.63
2022-11-13T23:51:25.886Z,27.50
2022-11-13T23:54:46.587Z,26.63
2022-11-13T23:58:10.818Z,24.50
